Time;durP1;ratioP1;P1;durP2;ratioP2;P2;SDS_P1;SDS_P2;PMS_P1;PMS_P2;Temp;Humidity;BMP_temperature;BMP_pressure;BME280_temperature;BME280_humidity;BME280_pressure;Samples;Min_cycle;Max_cycle;Signal;HPM_P1;HPM_P2
2022/06/03 00:02:54;;;;;;;6.70;5.07;;;12.30;99.90;;;;;;5098956;28;20112;-71
2022/06/03 00:05:20;;;;;;;8.98;5.20;;;;;;;;;;5115961;28;20040;-71
2022/06/03 00:07:52;;;;;;;7.47;4.97;;;12.60;99.90;;;;;;5098740;28;20036;-71
2022/06/03 00:10:36;;;;;;;6.25;4.97;;;11.60;99.90;;;;;;5115803;28;20039;-72
2022/06/03 00:13:25;;;;;;;8.50;4.97;;;12.30;99.90;;;;;;5098731;28;20049;-71
2022/06/03 00:16:14;;;;;;;6.95;4.50;;;12.70;99.90;;;;;;5115773;28;20047;-71
2022/06/03 00:19:04;;;;;;;11.77;4.88;;;11.70;99.90;;;;;;5115549;28;20554;-71
2022/06/03 00:21:33;;;;;;;12.02;5.25;;;;;;;;;;5115489;28;20127;-71
2022/06/03 00:24:16;;;;;;;9.20;4.85;;;12.30;99.90;;;;;;5115705;28;20078;-72
2022/06/03 00:27:02;;;;;;;;;;;12.00;99.90;;;;;;5115958;28;20071;-71
2022/06/03 00:29:47;;;;;;;11.85;4.93;;;12.10;99.90;;;;;;5112977;28;19915;-71
2022/06/03 00:32:13;;;;;;;8.27;4.70;;;;;;;;;;5115720;28;20047;-70
2022/06/03 00:34:52;;;;;;;8.68;4.85;;;;;;;;;;5115250;28;20123;-71
2022/06/03 00:37:38;;;;;;;10.45;5.25;;;11.80;99.90;;;;;;5115189;28;20039;-71
2022/06/03 00:40:18;;;;;;;6.22;4.72;;;11.90;99.90;;;;;;5115107;28;20039;-71
2022/06/03 00:42:44;;;;;;;7.88;5.30;;;;;;;;;;5115127;28;20373;-72
2022/06/03 00:45:26;;;;;;;6.30;5.13;;;;;;;;;;5115166;28;20040;-71
2022/06/03 00:48:04;;;;;;;7.63;5.03;;;;;;;;;;5098428;28;20152;-71
2022/06/03 00:50:56;;;;;;;10.55;5.50;;;11.80;99.90;;;;;;5097430;28;20575;-71
2022/06/03 00:53:52;;;;;;;6.80;5.25;;;11.70;99.90;;;;;;5114896;28;20499;-71
2022/06/03 00:56:35;;;;;;;7.68;5.40;;;;;;;;;;5113764;28;20518;-71
2022/06/03 00:59:28;;;;;;;9.68;5.38;;;11.80;99.90;;;;;;5114900;28;20043;-71
2022/06/03 01:02:14;;;;;;;9.20;5.78;;;12.40;99.90;;;;;;5097606;28;20052;-72
2022/06/03 01:05:05;;;;;;;13.02;6.68;;;11.70;99.90;;;;;;5115104;28;20043;-71
2022/06/03 01:08:01;;;;;;;10.02;6.00;;;11.70;99.90;;;;;;5114784;28;20042;-71
2022/06/03 01:11:04;;;;;;;11.15;5.85;;;11.50;99.90;;;;;;5114694;28;20039;-71
2022/06/03 01:13:36;;;;;;;8.95;5.80;;;;;;;;;;5114730;28;20071;-71
2022/06/03 01:16:17;;;;;;;11.20;5.97;;;11.50;99.90;;;;;;5114565;28;20049;-71
2022/06/03 01:18:49;;;;;;;8.43;6.03;;;;;;;;;;5114707;28;20039;-71
2022/06/03 01:21:38;;;;;;;11.10;6.45;;;12.40;99.90;;;;;;5114427;28;20480;-71
2022/06/03 01:24:05;;;;;;;10.25;6.05;;;;;;;;;;5097579;28;20433;-70
2022/06/03 01:26:45;;;;;;;14.77;6.63;;;10.40;99.90;;;;;;5097420;28;20123;-70
2022/06/03 01:29:48;;;;;;;16.63;6.63;;;11.50;99.90;;;;;;5114579;28;20032;-70
2022/06/03 01:32:55;;;;;;;11.75;6.53;;;;;;;;;;5114562;28;20365;-71
2022/06/03 01:35:44;;;;;;;8.88;5.95;;;11.50;99.90;;;;;;4999760;28;20083;-71
2022/06/03 01:38:18;;;;;;;8.35;5.95;;;11.00;99.90;;;;;;5016162;28;20441;-71
2022/06/03 01:41:17;;;;;;;13.50;5.28;;;11.50;99.90;;;;;;5066767;28;20495;-71
2022/06/03 01:44:01;;;;;;;13.65;6.65;;;11.50;99.90;;;;;;5114224;28;20047;-71
2022/06/03 01:46:39;;;;;;;11.77;6.60;;;11.90;99.90;;;;;;5113893;28;20515;-71
2022/06/03 01:49:39;;;;;;;14.30;6.88;;;11.60;99.90;;;;;;5096978;28;20110;-71
2022/06/03 01:52:30;;;;;;;12.48;6.68;;;11.40;99.90;;;;;;5113912;28;20050;-71
2022/06/03 01:54:56;;;;;;;13.98;6.95;;;;;;;;;;5113726;28;20054;-72
2022/06/03 01:57:22;;;;;;;12.75;6.60;;;;;;;;;;5113764;28;20079;-70
2022/06/03 01:59:51;;;;;;;8.13;6.80;;;;;;;;;;5113626;28;20040;-71
2022/06/03 02:02:42;;;;;;;9.15;6.65;;;12.10;99.90;;;;;;5113514;28;20394;-71
2022/06/03 02:05:54;;;;;;;10.88;7.07;;;12.00;99.90;;;;;;5113585;28;20039;-71
2022/06/03 02:08:41;;;;;;;9.18;6.93;;;12.00;99.90;;;;;;5113530;28;20480;-71
2022/06/03 02:11:18;;;;;;;18.60;7.88;;;10.00;99.90;;;;;;5113552;28;20044;-71
2022/06/03 02:13:51;;;;;;;12.63;6.80;;;;;;;;;;5113430;28;20096;-71
2022/06/03 02:16:44;;;;;;;14.27;7.88;;;11.10;99.90;;;;;;5113324;28;20082;-72
2022/06/03 02:19:46;;;;;;;9.90;6.90;;;11.10;99.90;;;;;;5113155;28;20043;-72
2022/06/03 02:22:20;;;;;;;11.30;7.35;;;11.40;99.90;;;;;;5113186;28;20144;-72
2022/06/03 02:25:04;;;;;;;9.15;6.78;;;11.20;99.90;;;;;;5113256;28;20176;-72
2022/06/03 02:27:30;;;;;;;11.43;6.90;;;;;;;;;;5113591;28;20128;-72
2022/06/03 02:30:37;;;;;;;11.05;6.85;;;11.10;99.90;;;;;;5113135;28;20479;-72
2022/06/03 02:33:24;;;;;;;12.02;6.82;;;11.10;99.90;;;;;;5096477;28;20108;-72
2022/06/03 02:36:11;;;;;;;10.85;7.60;;;11.10;99.90;;;;;;5113200;28;20549;-72
2022/06/03 02:38:37;;;;;;;11.50;7.40;;;;;;;;;;5113314;28;20404;-72
2022/06/03 02:41:23;;;;;;;10.00;7.20;;;11.10;99.90;;;;;;5112800;28;20044;-72
2022/06/03 02:44:34;;;;;;;15.70;7.30;;;11.00;99.90;;;;;;5112936;28;20039;-72
2022/06/03 02:47:37;;;;;;;15.75;7.45;;;10.20;99.90;;;;;;5041588;28;20062;-72
2022/06/03 02:50:43;;;;;;;13.43;7.10;;;11.00;99.90;;;;;;5095801;28;20043;-72
2022/06/03 02:53:34;;;;;;;9.02;6.60;;;11.10;99.90;;;;;;5084439;28;20063;-72
2022/06/03 02:56:20;;;;;;;11.23;7.03;;;11.00;99.90;;;;;;5112987;28;20052;-72
2022/06/03 02:59:12;;;;;;;13.45;6.93;;;11.00;99.90;;;;;;5112887;28;20047;-72
2022/06/03 03:01:56;;;;;;;15.23;7.65;;;;;;;;;;5112386;28;20538;-71
2022/06/03 03:04:22;;;;;;;11.02;6.88;;;;;;;;;;5112842;28;20039;-72
2022/06/03 03:07:09;;;;;;;10.82;6.88;;;11.00;99.90;;;;;;5112627;28;20035;-72
2022/06/03 03:10:09;;;;;;;15.40;7.00;;;11.10;99.90;;;;;;5112462;28;20059;-71
2022/06/03 03:13:13;;;;;;;12.82;6.85;;;10.90;99.90;;;;;;5095007;28;20039;-71
2022/06/03 03:16:19;;;;;;;13.48;6.80;;;10.90;99.90;;;;;;5095224;28;20122;-70
2022/06/03 03:19:13;;;;;;;12.20;6.90;;;11.10;99.90;;;;;;5111132;28;20131;-70
2022/06/03 03:21:48;;;;;;;11.02;7.22;;;;;;;;;;5112347;28;20044;-71
2022/06/03 03:24:41;;;;;;;8.77;6.68;;;11.00;99.90;;;;;;5112765;28;20096;-70
2022/06/03 03:27:10;;;;;;;9.93;6.65;;;;;;;;;;5112374;28;20502;-71
2022/06/03 03:29:36;;;;;;;12.55;6.90;;;;;;;;;;5095620;28;20066;-71
2022/06/03 03:32:17;;;;;;;13.07;7.80;;;11.00;99.90;;;;;;5112257;28;20484;-71
2022/06/03 03:35:04;;;;;;;9.63;6.80;;;10.90;99.90;;;;;;5112316;28;20483;-71
2022/06/03 03:37:47;;;;;;;13.80;8.07;;;10.60;99.90;;;;;;5112336;28;20081;-71
2022/06/03 03:40:16;;;;;;;14.15;7.53;;;;;;;;;;5095584;28;20079;-71
2022/06/03 03:42:54;;;;;;;12.45;7.18;;;;;;;;;;5112370;28;20088;-71
2022/06/03 03:45:35;;;;;;;10.20;7.18;;;11.60;99.90;;;;;;5095525;28;20047;-71
2022/06/03 03:48:37;;;;;;;15.45;7.93;;;10.00;99.90;;;;;;5112318;28;20035;-71
2022/06/03 03:51:12;;;;;;;14.35;7.63;;;11.30;99.90;;;;;;5095282;28;20059;-71
2022/06/03 03:54:03;;;;;;;11.10;7.30;;;10.80;99.90;;;;;;5112150;28;20044;-71
2022/06/03 03:56:40;;;;;;;13.68;8.07;;;10.70;99.90;;;;;;5095154;28;20044;-70
2022/06/03 03:59:47;;;;;;;13.27;8.13;;;9.60;99.90;;;;;;5112137;28;20048;-70
2022/06/03 04:02:40;;;;;;;15.52;8.88;;;9.70;99.90;;;;;;5021427;28;20060;-70
2022/06/03 04:05:09;;;;;;;;;;;10.80;99.90;;;;;;5092268;28;20135;-71
2022/06/03 04:08:18;;;;;;;12.35;8.07;;;10.70;99.90;;;;;;5091989;28;19916;-71
2022/06/03 04:11:05;;;;;;;15.43;8.55;;;10.60;99.90;;;;;;5075084;28;20040;-71
2022/06/03 04:13:56;;;;;;;13.57;8.02;;;10.60;99.90;;;;;;5091963;28;20117;-71
2022/06/03 04:16:23;;;;;;;14.10;8.57;;;;;;;;;;5091795;28;20047;-71
2022/06/03 04:19:26;;;;;;;13.18;8.40;;;10.80;99.90;;;;;;5091598;28;20036;-70
2022/06/03 04:22:13;;;;;;;14.68;8.70;;;10.60;99.90;;;;;;5091390;28;20040;-70
2022/06/03 04:25:12;;;;;;;16.67;8.98;;;11.60;99.90;;;;;;5091646;28;20086;-71
2022/06/03 04:27:58;;;;;;;15.73;9.48;;;10.70;99.90;;;;;;5094819;28;20036;-70
2022/06/03 04:30:39;;;;;;;15.90;9.30;;;;;;;;;;5095379;28;20044;-70
2022/06/03 04:33:12;;;;;;;16.25;9.50;;;;;;;;;;5095097;28;20047;-71
2022/06/03 04:36:05;;;;;;;14.57;8.13;;;10.80;99.90;;;;;;5095142;28;20123;-71
2022/06/03 04:38:31;;;;;;;16.73;8.18;;;;;;;;;;5095250;28;20032;-70
2022/06/03 04:41:34;;;;;;;15.20;8.98;;;10.80;99.90;;;;;;5094825;28;20506;-70
2022/06/03 04:44:37;;;;;;;13.35;8.95;;;10.80;99.90;;;;;;5094826;28;20036;-71
2022/06/03 04:47:28;;;;;;;16.30;8.65;;;11.00;99.90;;;;;;5094713;28;20036;-71
2022/06/03 04:49:54;;;;;;;16.67;9.27;;;;;;;;;;5094656;28;20036;-71
2022/06/03 04:52:57;;;;;;;14.27;8.75;;;11.00;99.90;;;;;;5094595;28;20032;-71
2022/06/03 04:55:29;;;;;;;;;;;11.20;99.90;;;;;;5078033;28;20040;-71
2022/06/03 04:58:16;;;;;;;14.57;9.00;;;10.80;99.90;;;;;;5094688;28;19982;-70
2022/06/03 05:01:11;;;;;;;17.33;8.63;;;11.00;99.90;;;;;;5099137;27;20063;-71
2022/06/03 05:04:07;;;;;;;11.95;8.02;;;;;;;;;;5118178;27;20487;-71
2022/06/03 05:07:08;;;;;;;18.45;8.60;;;11.40;99.90;;;;;;5101625;27;20126;-70
2022/06/03 05:10:04;;;;;;;18.02;8.90;;;11.30;99.90;;;;;;5086522;27;20368;-70
2022/06/03 05:13:01;;;;;;;17.13;8.70;;;11.30;99.90;;;;;;5100976;27;20070;-70
2022/06/03 05:15:30;;;;;;;16.92;8.82;;;10.80;99.90;;;;;;5117963;27;20091;-70
2022/06/03 05:18:28;;;;;;;15.27;8.98;;;11.40;99.90;;;;;;5117790;27;20087;-71
2022/06/03 05:20:54;;;;;;;14.63;9.45;;;;;;;;;;5117829;27;20038;-71
2022/06/03 05:23:43;;;;;;;15.73;9.65;;;11.60;99.90;;;;;;5117802;27;20035;-71
2022/06/03 05:26:26;;;;;;;16.05;9.40;;;12.10;99.90;;;;;;5117878;27;20035;-71
2022/06/03 05:29:06;;;;;;;17.73;9.13;;;11.60;99.90;;;;;;5117729;27;20031;-71
2022/06/03 05:32:11;;;;;;;17.92;9.77;;;11.90;99.90;;;;;;5117614;27;20039;-71
2022/06/03 05:34:47;;;;;;;14.77;9.60;;;;;;;;;;5117079;27;20043;-70
2022/06/03 05:37:34;;;;;;;13.02;8.55;;;11.70;99.90;;;;;;5117303;27;20054;-71
2022/06/03 05:40:05;;;;;;;12.00;8.05;;;12.00;99.90;;;;;;5117817;27;20505;-70
2022/06/03 05:42:52;;;;;;;12.47;7.87;;;12.00;99.90;;;;;;5117521;27;20039;-71
2022/06/03 05:45:18;;;;;;;11.43;7.50;;;;;;;;;;5117296;27;20312;-71
2022/06/03 05:48:05;;;;;;;10.07;7.72;;;12.30;99.90;;;;;;5100370;27;20035;-71
2022/06/03 05:50:43;;;;;;;16.27;7.05;;;12.10;99.90;;;;;;5117466;27;20043;-71
2022/06/03 05:53:38;;;;;;;11.55;7.25;;;12.50;99.90;;;;;;5117207;27;20137;-70
2022/06/03 05:56:04;;;;;;;16.30;7.10;;;;;;;;;;5117231;27;20126;-71
2022/06/03 05:58:51;;;;;;;11.88;6.25;;;12.40;99.90;;;;;;5117263;27;20077;-71
2022/06/03 06:01:44;;;;;;;9.30;6.38;;;12.60;99.90;;;;;;5116026;27;20058;-71
2022/06/03 06:04:24;;;;;;;;;;;12.50;99.90;;;;;;5117379;27;20042;-70
2022/06/03 06:07:09;;;;;;;11.35;6.25;;;;;;;;;;5117021;27;19956;-70
2022/06/03 06:09:46;;;;;;;8.13;5.97;;;13.50;99.90;;;;;;5117144;27;20043;-70
2022/06/03 06:12:15;;;;;;;10.70;6.03;;;;;;;;;;5116857;27;20053;-70
2022/06/03 06:15:19;;;;;;;8.73;5.43;;;13.00;99.90;;;;;;5116805;27;20039;-71
2022/06/03 06:18:06;;;;;;;11.25;5.93;;;12.60;99.90;;;;;;5116667;27;20035;-70
2022/06/03 06:20:32;;;;;;;7.80;5.07;;;;;;;;;;5116881;27;20096;-71
2022/06/03 06:23:02;;;;;;;9.35;5.95;;;;;;;;;;5116922;27;20433;-70
2022/06/03 06:25:45;;;;;;;8.30;5.55;;;12.30;99.90;;;;;;5116578;27;20118;-70
2022/06/03 06:28:11;;;;;;;7.70;5.38;;;;;;;;;;5116582;27;20088;-70
2022/06/03 06:30:50;;;;;;;8.43;5.15;;;;;;;;;;5116514;27;20050;-70
2022/06/03 06:33:37;;;;;;;6.82;5.10;;;13.00;99.90;;;;;;5116429;27;20043;-70
2022/06/03 06:36:28;;;;;;;12.55;5.47;;;13.40;99.90;;;;;;5116371;27;20035;-71
2022/06/03 06:39:29;;;;;;;9.07;4.78;;;13.20;99.90;;;;;;5116427;27;20039;-71
2022/06/03 06:42:21;;;;;;;6.43;4.57;;;13.20;99.90;;;;;;5116127;27;20092;-71
2022/06/03 06:45:07;;;;;;;11.18;4.53;;;13.30;99.90;;;;;;5099213;27;20051;-71
2022/06/03 06:47:47;;;;;;;7.03;5.03;;;13.50;99.90;;;;;;5116465;27;20080;-72
2022/06/03 06:50:40;;;;;;;5.43;4.30;;;13.90;99.90;;;;;;5115734;27;20074;-71
2022/06/03 06:53:12;;;;;;;8.77;4.57;;;13.70;99.90;;;;;;5116020;27;20042;-71
2022/06/03 06:56:10;;;;;;;6.90;4.53;;;13.80;99.90;;;;;;5099187;27;20082;-71
2022/06/03 06:58:52;;;;;;;6.80;4.80;;;14.20;99.90;;;;;;5116134;27;20039;-71
2022/06/03 07:01:34;;;;;;;9.55;4.82;;;13.90;99.90;;;;;;5112254;28;20125;-72
2022/06/03 07:04:00;;;;;;;;;;;;;;;;;;5112902;28;20040;-72
2022/06/03 07:06:42;;;;;;;6.93;4.72;;;14.10;99.50;;;;;;5112636;28;19942;-72
2022/06/03 07:09:12;;;;;;;6.47;4.70;;;;;;;;;;5095550;28;20467;-72
2022/06/03 07:11:44;;;;;;;7.07;4.30;;;;;;;;;;5112466;28;20047;-71
2022/06/03 07:14:20;;;;;;;8.35;4.28;;;14.10;99.40;;;;;;5112722;28;20047;-72
2022/06/03 07:20:06;;;;;;;7.30;4.18;;;14.50;99.30;;;;;;5112319;28;20492;-72
2022/06/03 07:23:12;;;;;;;7.78;5.05;;;14.40;99.60;;;;;;5095461;28;20058;-72
2022/06/03 07:25:54;;;;;;;6.85;4.07;;;14.50;99.70;;;;;;5091014;28;20044;-72
2022/06/03 07:28:22;;;;;;;7.57;4.20;;;;;;;;;;5095329;28;20040;-72
2022/06/03 07:30:53;;;;;;;6.63;3.80;;;14.70;98.30;;;;;;5112251;28;20124;-71
2022/06/03 07:33:31;;;;;;;10.13;3.67;;;;;;;;;;5112454;28;20483;-71
2022/06/03 07:36:24;;;;;;;8.82;4.00;;;14.80;98.60;;;;;;5095328;28;20521;-71
2022/06/03 07:38:50;;;;;;;4.97;3.80;;;;;;;;;;5095109;28;20046;-71
2022/06/03 07:41:32;;;;;;;6.82;4.05;;;;;;;;;;5112037;28;20083;-71
2022/06/03 07:44:19;;;;;;;10.80;4.00;;;14.90;98.20;;;;;;5112391;28;20039;-68
2022/06/03 07:46:52;;;;;;;6.20;4.07;;;;;;;;;;5112157;28;20039;-69
2022/06/03 07:49:21;;;;;;;8.23;4.38;;;15.30;98.10;;;;;;5094988;28;20040;-68
2022/06/03 07:51:52;;;;;;;6.93;3.80;;;15.40;98.00;;;;;;5112231;28;20049;-68
2022/06/03 07:54:21;;;;;;;5.78;3.95;;;;;;;;;;5112065;28;20040;-68
2022/06/03 07:56:47;;;;;;;7.47;3.60;;;;;;;;;;5111803;28;20487;-69
2022/06/03 07:59:19;;;;;;;6.88;3.67;;;15.40;97.20;;;;;;5112737;28;20392;-69
2022/06/03 08:01:58;;;;;;;7.78;3.67;;;14.70;99.90;;;;;;5115532;28;20053;-68
2022/06/03 08:04:33;;;;;;;5.93;3.20;;;15.60;99.90;;;;;;5115914;28;20047;-69
2022/06/03 08:12:34;;;;;;;5.63;3.47;;;15.70;96.90;;;;;;5116045;28;20344;-69
2022/06/03 08:15:18;;;;;;;6.75;3.47;;;15.60;96.50;;;;;;5115866;28;20040;-69
2022/06/03 08:17:45;;;;;;;6.95;3.55;;;15.70;96.80;;;;;;5115673;28;20047;-69
2022/06/03 08:20:14;;;;;;;7.45;3.63;;;15.70;96.60;;;;;;5115940;28;20039;-68
2022/06/03 08:22:40;;;;;;;7.30;3.17;;;;;;;;;;5115962;28;20395;-69
2022/06/03 08:25:07;;;;;;;6.10;3.20;;;16.40;99.90;;;;;;5115910;28;20071;-69
2022/06/03 08:27:35;;;;;;;5.60;2.95;;;15.10;99.40;;;;;;5115909;28;20043;-69
2022/06/03 08:30:05;;;;;;;6.72;3.28;;;16.20;96.00;;;;;;5098440;28;20089;-69
2022/06/03 08:32:37;;;;;;;3.75;3.20;;;16.10;95.90;;;;;;5115445;28;20031;-69
2022/06/03 08:35:25;;;;;;;6.82;3.55;;;16.10;95.00;;;;;;5115417;28;20034;-69
2022/06/03 08:37:55;;;;;;;8.50;3.53;;;17.00;99.20;;;;;;5115457;28;20043;-69
2022/06/03 08:40:25;;;;;;;5.57;3.00;;;;;;;;;;5115340;28;20126;-68
2022/06/03 08:42:54;;;;;;;5.60;3.33;;;;;;;;;;5115478;28;20039;-68
2022/06/03 08:45:43;;;;;;;7.97;3.35;;;16.60;94.40;;;;;;5115471;28;20043;-69
2022/06/03 08:48:14;;;;;;;4.43;3.00;;;16.90;98.90;;;;;;5098141;28;20043;-71
2022/06/03 08:50:40;;;;;;;4.45;3.22;;;;;;;;;;5115078;28;20075;-69
2022/06/03 08:53:19;;;;;;;5.38;3.47;;;17.10;98.50;;;;;;5115209;28;20062;-69
2022/06/03 08:56:22;;;;;;;5.40;3.53;;;16.90;94.90;;;;;;5115021;28;20043;-68
2022/06/03 08:58:56;;;;;;;5.00;3.10;;;16.20;98.00;;;;;;5000658;28;20041;-69
2022/06/03 09:01:22;;;;;;;5.22;3.10;;;;;;;;;;5100525;28;20056;-69
2022/06/03 09:04:07;;;;;;;3.95;3.10;;;17.10;94.50;;;;;;5114927;28;20043;-69
2022/06/03 09:07:04;;;;;;;7.82;3.40;;;17.90;97.70;;;;;;5114937;28;20039;-69
2022/06/03 09:09:54;;;;;;;5.72;2.90;;;17.60;94.40;;;;;;5114667;28;20035;-69
2022/06/03 09:12:20;;;;;;;4.90;3.33;;;;;;;;;;5114063;28;20048;-69
2022/06/03 09:14:48;;;;;;;7.10;2.83;;;17.70;93.90;;;;;;5114827;28;20066;-69
2022/06/03 09:17:39;;;;;;;7.03;3.20;;;17.80;92.60;;;;;;5114457;28;20043;-69
2022/06/03 09:20:17;;;;;;;4.70;2.90;;;18.20;96.90;;;;;;5114313;28;20039;-69
2022/06/03 09:22:44;;;;;;;6.50;3.22;;;18.00;92.90;;;;;;5114481;28;20035;-69
2022/06/03 09:25:14;;;;;;;6.03;3.10;;;18.00;93.00;;;;;;5114302;28;20426;-70
2022/06/03 09:27:41;;;;;;;6.55;3.47;;;18.10;92.50;;;;;;5114350;28;20046;-69
2022/06/03 09:30:10;;;;;;;12.88;3.88;;;18.80;96.20;;;;;;5114208;28;20039;-69
2022/06/03 09:32:47;;;;;;;6.72;3.15;;;18.40;92.60;;;;;;5114221;28;20122;-69
2022/06/03 09:35:20;;;;;;;5.88;3.20;;;18.50;92.40;;;;;;5114481;28;20114;-69
2022/06/03 09:37:50;;;;;;;8.45;3.40;;;18.50;92.20;;;;;;5114071;28;20079;-69
2022/06/03 09:40:23;;;;;;;5.30;3.25;;;18.70;94.30;;;;;;5114439;28;20118;-69
2022/06/03 09:43:01;;;;;;;13.38;3.67;;;18.60;92.30;;;;;;5113963;28;20040;-70
2022/06/03 09:45:28;;;;;;;8.60;3.67;;;18.70;92.00;;;;;;5114149;28;20036;-69
2022/06/03 09:47:55;;;;;;;6.15;3.47;;;;;;;;;;5114158;28;20425;-69
2022/06/03 09:50:23;;;;;;;7.25;3.10;;;18.10;95.20;;;;;;5113787;28;20495;-69
2022/06/03 09:52:49;;;;;;;5.15;3.33;;;;;;;;;;5096775;28;20429;-70
2022/06/03 09:55:49;;;;;;;8.02;3.22;;;18.80;91.70;;;;;;5113634;28;20039;-70
2022/06/03 09:58:19;;;;;;;9.38;3.22;;;18.90;91.40;;;;;;5085986;28;20054;-69
2022/06/03 10:00:49;;;;;;;9.35;3.70;;;19.80;94.50;;;;;;5115704;27;20052;-70
2022/06/03 10:03:15;;;;;;;4.45;2.92;;;;;;;;;;5117042;27;20046;-69
2022/06/03 10:05:45;;;;;;;7.97;3.30;;;18.90;90.40;;;;;;5100009;27;20039;-69
2022/06/03 10:08:12;;;;;;;4.68;3.08;;;;;;;;;;5116915;27;20035;-69
2022/06/03 10:13:23;;;;;;;4.70;3.35;;;;;;;;;;5116850;27;20092;-69
2022/06/03 10:15:53;;;;;;;5.65;3.13;;;;;;;;;;5116943;27;20039;-69
2022/06/03 10:18:31;;;;;;;6.95;3.15;;;19.00;93.50;;;;;;5116508;27;20410;-69
2022/06/03 10:21:06;;;;;;;10.15;4.10;;;19.90;93.50;;;;;;5100036;27;20387;-69
2022/06/03 10:23:43;;;;;;;6.68;3.30;;;19.60;89.80;;;;;;5115528;27;20082;-70
2022/06/03 10:26:17;;;;;;;9.32;3.20;;;19.60;89.80;;;;;;5116631;27;20505;-69
2022/06/03 10:28:43;;;;;;;5.20;3.55;;;20.50;93.30;;;;;;5116788;27;20042;-70
2022/06/03 10:31:14;;;;;;;5.88;3.10;;;19.70;93.20;;;;;;5116433;28;20379;-69
2022/06/03 10:34:01;;;;;;;7.05;3.40;;;19.30;92.80;;;;;;5116362;27;20054;-69
2022/06/03 10:36:49;;;;;;;6.53;4.00;;;20.00;88.50;;;;;;5116310;27;20047;-69
2022/06/03 10:39:20;;;;;;;4.22;3.10;;;19.90;88.30;;;;;;5116733;27;20118;-70
2022/06/03 10:41:52;;;;;;;6.55;3.30;;;19.90;88.40;;;;;;5099243;27;20039;-70
2022/06/03 10:44:27;;;;;;;6.20;3.50;;;20.50;92.70;;;;;;5116222;27;20054;-69
2022/06/03 10:46:53;;;;;;;10.50;3.55;;;;;;;;;;5116232;27;20554;-70
2022/06/03 10:49:20;;;;;;;4.65;3.30;;;20.40;92.20;;;;;;5099388;27;20035;-70
2022/06/03 11:02:49;;;;;;;5.55;2.90;;;;;;;;;;5115833;28;20076;-69
2022/06/03 11:05:24;;;;;;;4.93;3.10;;;19.70;91.70;;;;;;5098923;27;20035;-69
2022/06/03 11:08:03;;;;;;;8.73;3.13;;;20.80;91.60;;;;;;5099140;27;20035;-70
2022/06/03 11:10:42;;;;;;;7.95;3.67;;;20.70;85.50;;;;;;5115757;28;20092;-68
2022/06/03 11:13:10;;;;;;;6.63;3.65;;;20.90;86.10;;;;;;5115960;28;20043;-69
2022/06/03 11:15:39;;;;;;;4.28;3.50;;;20.60;86.80;;;;;;5115829;28;20108;-69
2022/06/03 11:18:28;;;;;;;8.10;4.38;;;19.80;91.70;;;;;;5115706;28;20051;-69
2022/06/03 11:20:56;;;;;;;8.75;4.07;;;20.30;92.90;;;;;;5115761;28;20487;-69
2022/06/03 11:23:22;;;;;;;9.93;3.90;;;;;;;;;;5115827;28;20043;-69
2022/06/03 11:25:54;;;;;;;8.00;4.03;;;19.80;92.90;;;;;;5115813;28;20051;-69
2022/06/03 11:28:28;;;;;;;21.75;3.83;;;20.20;93.10;;;;;;5115919;28;20039;-69
2022/06/03 11:31:06;;;;;;;7.28;3.90;;;20.10;92.00;;;;;;5115864;28;20043;-69
2022/06/03 11:33:47;;;;;;;7.00;4.20;;;19.90;92.60;;;;;;5115947;28;20088;-69
2022/06/03 11:36:39;;;;;;;7.47;4.18;;;21.50;91.10;;;;;;5118916;27;20043;-70
2022/06/03 11:39:22;;;;;;;8.30;3.70;;;21.20;93.00;;;;;;5119078;27;20055;-69
2022/06/03 11:41:55;;;;;;;12.13;4.95;;;20.30;88.30;;;;;;5119672;27;20051;-69
2022/06/03 11:44:51;;;;;;;6.50;4.07;;;19.40;92.90;;;;;;5119717;27;20043;-69
2022/06/03 11:47:49;;;;;;;12.45;4.18;;;19.60;93.70;;;;;;5119780;27;20043;-69
2022/06/03 11:50:20;;;;;;;10.43;4.50;;;20.10;90.20;;;;;;5119902;27;20180;-69
2022/06/03 11:52:49;;;;;;;8.60;4.70;;;20.40;90.10;;;;;;5119520;27;20107;-69
2022/06/03 11:55:15;;;;;;;8.30;3.88;;;;;;;;;;5119871;27;20039;-69
2022/06/03 11:57:49;;;;;;;10.40;4.10;;;20.70;89.40;;;;;;5102625;27;20035;-69
2022/06/03 12:00:19;;;;;;;7.38;3.92;;;20.40;88.50;;;;;;5119746;27;20179;-69
2022/06/03 12:02:53;;;;;;;6.50;3.40;;;20.70;89.10;;;;;;5119339;27;20055;-70
2022/06/03 12:05:24;;;;;;;5.25;3.15;;;20.40;88.30;;;;;;5102428;27;20047;-69
2022/06/03 12:08:19;;;;;;;6.32;3.35;;;19.70;92.70;;;;;;5119358;27;20043;-69
2022/06/03 12:11:04;;;;;;;8.02;3.28;;;21.00;91.30;;;;;;5119503;27;20039;-69
2022/06/03 12:13:32;;;;;;;6.47;3.90;;;20.80;89.00;;;;;;5119124;27;20499;-69
2022/06/03 12:16:03;;;;;;;9.13;3.58;;;20.70;89.90;;;;;;5119468;27;20110;-69
2022/06/03 12:18:32;;;;;;;13.37;3.43;;;21.40;92.90;;;;;;5119407;27;20054;-69
2022/06/03 12:21:03;;;;;;;5.32;2.90;;;21.60;93.10;;;;;;5118954;27;20039;-69
2022/06/03 12:23:29;;;;;;;7.82;3.42;;;;;;;;;;5119062;27;20039;-69
2022/06/03 12:25:55;;;;;;;8.77;4.05;;;;;;;;;;5119113;27;20035;-70
2022/06/03 12:28:42;;;;;;;12.25;4.50;;;20.20;91.80;;;;;;5118701;27;20035;-70
2022/06/03 12:31:14;;;;;;;7.93;3.67;;;21.80;90.20;;;;;;5118730;27;20061;-69
2022/06/03 12:34:07;;;;;;;7.45;3.75;;;21.00;84.70;;;;;;5119000;27;20364;-69
2022/06/03 12:36:38;;;;;;;9.50;3.58;;;21.60;92.50;;;;;;5114300;27;20107;-69
2022/06/03 12:39:09;;;;;;;11.07;4.57;;;20.10;91.80;;;;;;5118606;27;20042;-69
2022/06/03 12:41:44;;;;;;;8.43;4.07;;;20.90;84.90;;;;;;5101422;27;20050;-69
2022/06/03 12:44:47;;;;;;;10.32;4.00;;;20.90;86.90;;;;;;5101398;27;20031;-69
2022/06/03 12:47:48;;;;;;;8.88;3.70;;;20.90;92.00;;;;;;5100503;27;20043;-69
2022/06/03 12:50:30;;;;;;;12.85;4.00;;;21.40;92.00;;;;;;5097039;27;20051;-69
2022/06/03 12:53:21;;;;;;;11.32;4.25;;;20.00;91.70;;;;;;5118330;27;20471;-69
2022/06/03 12:55:56;;;;;;;14.17;3.73;;;21.30;92.00;;;;;;5118278;27;20364;-70
2022/06/03 12:58:42;;;;;;;6.10;2.88;;;20.80;87.80;;;;;;5118385;27;20046;-70
2022/06/03 13:01:10;;;;;;;9.05;3.05;;;20.90;86.70;;;;;;5118224;27;20055;-69
2022/06/03 13:03:35;;;;;;;7.80;3.50;;;21.30;92.10;;;;;;5118534;27;20465;-70
2022/06/03 13:06:05;;;;;;;5.40;2.97;;;20.40;91.80;;;;;;5118524;27;20066;-70
2022/06/03 13:08:34;;;;;;;6.43;3.15;;;21.60;92.00;;;;;;5118168;27;20043;-70
2022/06/03 13:11:02;;;;;;;4.75;2.78;;;21.70;91.70;;;;;;5118190;27;20043;-70
2022/06/03 13:13:29;;;;;;;11.32;2.70;;;21.00;84.20;;;;;;5118008;27;20068;-70
2022/06/03 13:16:17;;;;;;;8.18;2.60;;;21.60;90.60;;;;;;5118144;27;20482;-70
2022/06/03 13:18:43;;;;;;;8.80;2.28;;;;;;;;;;5118021;27;20491;-70
2022/06/03 13:21:09;;;;;;;6.60;2.65;;;21.90;81.90;;;;;;5118177;27;20039;-70
2022/06/03 13:23:42;;;;;;;8.63;2.20;;;20.80;83.60;;;;;;5118293;27;20058;-70
2022/06/03 13:26:23;;;;;;;3.25;2.08;;;20.90;82.10;;;;;;5100778;27;20039;-69
2022/06/03 13:29:04;;;;;;;4.88;1.90;;;21.00;79.40;;;;;;5117985;27;20041;-70
2022/06/03 13:31:43;;;;;;;5.00;2.40;;;21.40;89.50;;;;;;5118065;27;20429;-70
2022/06/03 13:34:11;;;;;;;5.20;2.22;;;21.40;88.60;;;;;;5118036;27;20054;-69
2022/06/03 13:36:44;;;;;;;4.65;2.25;;;20.90;79.20;;;;;;5117646;27;20060;-69
2022/06/03 13:39:23;;;;;;;6.25;2.25;;;21.30;88.70;;;;;;5117618;27;20043;-69
2022/06/03 13:44:47;;;;;;;10.05;2.00;;;20.70;87.90;;;;;;5117288;27;20050;-70
2022/06/03 13:47:18;;;;;;;3.58;2.13;;;21.10;80.10;;;;;;5117264;27;20035;-70
2022/06/03 13:50:13;;;;;;;7.18;1.80;;;20.00;86.30;;;;;;5117253;27;20042;-69
2022/06/03 13:52:52;;;;;;;4.07;1.58;;;20.90;87.30;;;;;;5100143;27;20035;-69
2022/06/03 13:55:24;;;;;;;4.28;2.17;;;20.80;87.90;;;;;;5117241;27;20047;-69
2022/06/03 13:58:00;;;;;;;4.35;1.73;;;21.10;76.70;;;;;;5117055;27;20140;-69
2022/06/03 14:00:51;;;;;;;5.78;1.70;;;21.30;87.30;;;;;;5117420;27;20440;-70
2022/06/03 14:03:20;;;;;;;3.15;1.60;;;21.60;87.20;;;;;;5112309;28;20052;-69
2022/06/03 14:05:55;;;;;;;4.55;1.75;;;21.10;86.00;;;;;;5113758;28;20044;-69
2022/06/03 14:08:27;;;;;;;12.18;1.77;;;21.60;86.20;;;;;;5096682;28;20462;-69
2022/06/03 14:11:00;;;;;;;3.67;1.40;;;21.30;85.60;;;;;;5113872;28;20092;-70
2022/06/03 14:14:19;;;;;;;5.05;1.60;;;21.40;86.30;;;;;;5113554;28;20083;-70
2022/06/03 14:16:50;;;;;;;3.28;1.55;;;20.20;84.90;;;;;;5015374;28;20533;-69
2022/06/03 14:19:52;;;;;;;8.40;2.70;;;21.40;84.30;;;;;;5015444;28;20132;-70
2022/06/03 14:22:39;;;;;;;3.80;1.13;;;20.20;84.80;;;;;;5098189;28;20063;-70
2022/06/03 14:25:11;;;;;;;6.22;1.30;;;20.60;72.80;;;;;;5113105;28;20552;-69
2022/06/03 14:27:44;;;;;;;1.73;0.98;;;19.90;81.80;;;;;;5113524;28;20044;-69
2022/06/03 14:30:17;;;;;;;2.65;1.13;;;21.40;83.40;;;;;;5113253;28;20043;-69
2022/06/03 14:32:49;;;;;;;3.45;1.30;;;21.30;82.00;;;;;;5113051;28;20044;-69
2022/06/03 14:36:00;;;;;;;5.00;1.20;;;20.10;81.10;;;;;;5113332;28;20053;-69
2022/06/03 14:38:46;;;;;;;2.15;1.38;;;21.50;82.10;;;;;;5015314;28;20041;-69
2022/06/03 14:41:23;;;;;;;3.08;1.60;;;20.50;81.20;;;;;;4998561;28;20041;-70
2022/06/03 14:43:49;;;;;;;3.53;1.50;;;20.70;73.10;;;;;;5086006;28;20044;-70